createdAt,value
2019-02-16T00:01:54.344Z,18.80
2019-02-16T00:04:24.021Z,18.80
2019-02-16T00:06:53.711Z,18.80
2019-02-16T00:09:23.384Z,18.80
2019-02-16T00:11:53.079Z,18.80
2019-02-16T00:14:22.836Z,18.80
2019-02-16T00:16:52.516Z,18.80
2019-02-16T00:19:22.208Z,18.80
2019-02-16T00:21:51.885Z,18.80
2019-02-16T00:24:21.657Z,18.80
2019-02-16T00:26:51.446Z,18.80
2019-02-16T00:29:21.204Z,18.80
2019-02-16T00:31:50.960Z,18.80
2019-02-16T00:34:20.637Z,18.70
2019-02-16T00:36:50.415Z,18.70
2019-02-16T00:39:20.160Z,18.70
2019-02-16T00:41:49.861Z,18.70
2019-02-16T00:44:19.542Z,18.70
2019-02-16T00:46:49.308Z,18.70
2019-02-16T00:49:19.083Z,18.70
2019-02-16T00:51:48.829Z,18.70
2019-02-16T00:54:18.522Z,18.70
2019-02-16T00:56:48.204Z,18.70
2019-02-16T00:59:17.901Z,18.70
2019-02-16T01:01:47.568Z,18.60
2019-02-16T01:04:17.276Z,18.70
2019-02-16T01:06:47.107Z,18.70
2019-02-16T01:09:16.805Z,18.60
2019-02-16T01:11:46.499Z,18.70
2019-02-16T01:14:16.176Z,18.60
2019-02-16T01:16:45.944Z,18.60
2019-02-16T01:19:15.624Z,18.60
2019-02-16T01:21:45.389Z,18.60
2019-02-16T01:24:15.081Z,18.60
2019-02-16T01:26:44.748Z,18.60
2019-02-16T01:29:14.448Z,18.60
2019-02-16T01:31:44.121Z,18.60
2019-02-16T01:34:13.822Z,18.60
2019-02-16T01:36:43.515Z,18.60
2019-02-16T01:39:13.189Z,18.60
2019-02-16T01:41:42.962Z,18.60
2019-02-16T01:44:12.712Z,18.60
2019-02-16T01:46:42.480Z,18.60
2019-02-16T01:49:12.226Z,18.60
2019-02-16T01:51:41.989Z,18.60
2019-02-16T01:54:11.662Z,18.60
2019-02-16T01:56:41.448Z,18.60
2019-02-16T01:59:11.122Z,18.60
2019-02-16T02:01:40.800Z,18.60
2019-02-16T02:04:10.728Z,18.60
2019-02-16T02:06:40.404Z,18.60
2019-02-16T02:09:12.177Z,18.60
2019-02-16T02:11:41.546Z,18.60
2019-02-16T02:14:11.215Z,18.60
2019-02-16T02:16:40.909Z,18.70
2019-02-16T02:19:10.672Z,18.70
2019-02-16T02:21:41.437Z,18.70
2019-02-16T02:24:11.383Z,18.70
2019-02-16T02:26:41.092Z,18.70
2019-02-16T02:29:10.845Z,18.70
2019-02-16T02:31:40.613Z,18.80
2019-02-16T02:34:10.309Z,18.80
2019-02-16T02:36:39.990Z,18.80
2019-02-16T02:39:09.761Z,18.80
2019-02-16T02:41:39.434Z,18.80
2019-02-16T02:44:09.132Z,18.80
2019-02-16T02:46:38.807Z,18.80
2019-02-16T02:49:08.575Z,18.80
2019-02-16T02:51:38.250Z,18.80
2019-02-16T02:54:07.949Z,18.80
2019-02-16T02:56:37.621Z,18.80
2019-02-16T02:59:07.329Z,18.80
2019-02-16T03:01:37.097Z,18.90
2019-02-16T03:04:06.831Z,18.90
2019-02-16T03:06:36.542Z,18.90
2019-02-16T03:09:06.287Z,18.90
2019-02-16T03:11:37.643Z,18.90
2019-02-16T03:14:07.320Z,18.90
2019-02-16T03:16:37.021Z,18.90
2019-02-16T03:19:06.698Z,18.90
2019-02-16T03:21:36.389Z,18.90
2019-02-16T03:24:06.157Z,18.90
2019-02-16T03:26:54.150Z,18.90
2019-02-16T03:29:41.982Z,18.90
2019-02-16T03:32:32.312Z,18.90
2019-02-16T03:35:39.037Z,18.90
2019-02-16T03:38:15.057Z,18.90
2019-02-16T03:40:47.848Z,18.90
2019-02-16T03:43:17.530Z,18.90
2019-02-16T03:45:47.217Z,18.90
2019-02-16T03:48:16.887Z,18.90
2019-02-16T03:50:46.588Z,18.90
2019-02-16T03:53:16.277Z,18.90
2019-02-16T03:55:45.968Z,18.90
2019-02-16T03:58:15.711Z,18.90
2019-02-16T04:00:45.405Z,18.90
2019-02-16T04:03:15.088Z,18.90
2019-02-16T04:05:44.756Z,18.90
2019-02-16T04:08:14.443Z,18.90
2019-02-16T04:10:44.120Z,18.90
2019-02-16T04:13:13.883Z,18.90
2019-02-16T04:15:43.550Z,18.90
2019-02-16T04:18:13.241Z,18.90
2019-02-16T04:20:42.980Z,18.90
2019-02-16T04:23:12.659Z,18.90
2019-02-16T04:25:42.352Z,18.90
2019-02-16T04:28:12.124Z,18.90
2019-02-16T04:30:41.813Z,18.90
2019-02-16T04:33:11.568Z,18.90
2019-02-16T04:35:41.318Z,18.90
2019-02-16T04:38:10.989Z,18.80
2019-02-16T04:40:40.759Z,18.90
2019-02-16T04:43:10.489Z,18.90
2019-02-16T04:45:40.253Z,18.90
2019-02-16T04:48:10.000Z,18.80
2019-02-16T04:50:39.805Z,18.80
2019-02-16T04:53:09.515Z,18.80
2019-02-16T04:55:39.266Z,18.80
2019-02-16T04:58:08.995Z,18.80
2019-02-16T05:00:38.678Z,18.80
2019-02-16T05:03:08.360Z,18.80
2019-02-16T05:05:38.026Z,18.80
2019-02-16T05:08:07.783Z,18.80
2019-02-16T05:10:37.457Z,18.80
2019-02-16T05:13:07.204Z,18.80
2019-02-16T05:15:36.872Z,18.80
2019-02-16T05:18:06.621Z,18.80
2019-02-16T05:20:36.290Z,18.80
2019-02-16T05:23:06.052Z,18.80
2019-02-16T05:25:39.862Z,18.80
2019-02-16T05:28:09.619Z,18.80
2019-02-16T05:30:39.352Z,18.80
2019-02-16T05:33:09.047Z,18.80
2019-02-16T05:35:38.801Z,18.80
2019-02-16T05:38:08.536Z,18.80
2019-02-16T05:40:38.308Z,18.80
2019-02-16T05:43:07.968Z,18.80
2019-02-16T05:45:37.654Z,18.80
2019-02-16T05:48:07.412Z,18.80
2019-02-16T05:50:37.162Z,18.80
2019-02-16T05:53:06.817Z,18.80
2019-02-16T05:55:36.467Z,18.80
2019-02-16T05:58:06.152Z,18.80
2019-02-16T06:00:35.887Z,18.80
2019-02-16T06:03:05.574Z,18.80
2019-02-16T06:05:35.228Z,18.80
2019-02-16T06:08:04.910Z,18.80
2019-02-16T06:10:34.653Z,18.80
2019-02-16T06:13:04.442Z,18.80
2019-02-16T06:15:34.192Z,18.80
2019-02-16T06:18:03.858Z,18.80
2019-02-16T06:20:33.539Z,18.80
2019-02-16T06:23:04.561Z,18.80
2019-02-16T06:25:34.570Z,18.80
2019-02-16T06:28:04.287Z,18.80
2019-02-16T06:30:33.974Z,18.70
2019-02-16T06:33:03.712Z,18.80
2019-02-16T06:35:35.134Z,18.70
2019-02-16T06:38:04.940Z,18.70
2019-02-16T06:40:34.631Z,18.70
2019-02-16T06:43:04.376Z,18.70
2019-02-16T06:45:34.117Z,18.70
2019-02-16T06:48:03.800Z,18.70
2019-02-16T06:50:36.975Z,18.80
2019-02-16T06:53:13.066Z,18.70
2019-02-16T06:55:40.598Z,18.80
2019-02-16T06:58:10.346Z,18.70
2019-02-16T07:00:40.047Z,18.70
2019-02-16T07:03:09.799Z,18.80
2019-02-16T07:05:39.477Z,18.70
2019-02-16T07:08:09.252Z,18.80
2019-02-16T07:10:39.000Z,18.70
2019-02-16T07:13:08.679Z,18.70
2019-02-16T07:15:38.432Z,18.80
2019-02-16T07:18:12.887Z,18.70
2019-02-16T07:20:42.573Z,18.80
2019-02-16T07:23:12.263Z,18.70
2019-02-16T07:25:41.985Z,18.80
2019-02-16T07:28:11.670Z,18.80
2019-02-16T07:30:41.413Z,18.70
2019-02-16T07:33:16.238Z,18.70
2019-02-16T07:35:46.153Z,18.80
2019-02-16T07:38:15.808Z,18.80
2019-02-16T07:40:45.545Z,18.80
2019-02-16T07:43:16.953Z,18.80
2019-02-16T07:45:48.317Z,18.80
2019-02-16T07:48:28.910Z,18.70
2019-02-16T07:51:00.205Z,18.70
2019-02-16T07:53:31.760Z,18.80
2019-02-16T07:56:08.810Z,18.70
2019-02-16T07:58:52.192Z,18.70
2019-02-16T08:01:38.843Z,18.70
2019-02-16T08:04:10.165Z,18.70
2019-02-16T08:06:44.483Z,18.70
2019-02-16T08:09:15.876Z,18.70
2019-02-16T08:11:50.320Z,18.70
2019-02-16T08:14:27.552Z,18.70
2019-02-16T08:17:11.222Z,18.70
2019-02-16T08:19:51.308Z,18.70
2019-02-16T08:22:25.563Z,18.70
2019-02-16T08:24:56.970Z,18.70
2019-02-16T08:27:28.345Z,18.70
2019-02-16T08:30:02.661Z,18.70
2019-02-16T08:32:39.889Z,18.80
2019-02-16T08:35:11.200Z,18.80
2019-02-16T08:37:45.244Z,18.80
2019-02-16T08:40:34.744Z,18.80
2019-02-16T08:43:06.077Z,18.80
2019-02-16T08:45:37.457Z,18.80
2019-02-16T08:48:08.857Z,18.80
2019-02-16T08:50:40.153Z,18.80
2019-02-16T08:53:11.548Z,18.80
2019-02-16T08:55:54.773Z,18.80
2019-02-16T08:58:28.969Z,18.90
2019-02-16T09:01:03.418Z,18.90
2019-02-16T09:03:50.117Z,18.90
2019-02-16T09:06:24.120Z,18.90
2019-02-16T09:08:55.446Z,18.90
2019-02-16T09:11:35.841Z,18.80
2019-02-16T09:14:23.379Z,18.50
2019-02-16T09:16:57.694Z,18.30
2019-02-16T09:19:38.227Z,18.00
2019-02-16T09:22:21.383Z,18.00
2019-02-16T09:24:55.744Z,17.90
2019-02-16T09:27:32.867Z,17.90
2019-02-16T09:30:09.834Z,17.90
2019-02-16T09:32:46.933Z,18.00
2019-02-16T09:35:27.280Z,17.90
2019-02-16T09:37:58.672Z,17.90
2019-02-16T09:40:42.084Z,17.90
2019-02-16T09:43:13.393Z,17.90
2019-02-16T09:46:03.069Z,17.90
2019-02-16T09:48:46.385Z,17.90
2019-02-16T09:51:23.752Z,17.90
2019-02-16T09:54:13.384Z,17.90
2019-02-16T09:56:50.728Z,17.90
2019-02-16T09:59:22.165Z,17.90
2019-02-16T10:01:53.532Z,17.90
2019-02-16T10:04:30.864Z,17.90
2019-02-16T10:07:14.297Z,17.90
2019-02-16T10:09:45.692Z,17.90
2019-02-16T10:12:22.773Z,17.90
2019-02-16T10:15:10.656Z,18.00
2019-02-16T10:17:41.962Z,18.00
2019-02-16T10:20:19.450Z,18.00
2019-02-16T10:22:53.605Z,18.10
2019-02-16T10:25:26.183Z,18.10
2019-02-16T10:28:03.456Z,18.10
2019-02-16T10:30:40.943Z,18.20
2019-02-16T10:33:12.253Z,18.20
2019-02-16T10:35:43.664Z,18.20
2019-02-16T10:38:31.242Z,18.20
2019-02-16T10:41:05.636Z,18.20
2019-02-16T10:43:40.095Z,18.30
2019-02-16T10:46:11.510Z,18.40
2019-02-16T10:48:42.892Z,18.40
2019-02-16T10:51:14.294Z,18.50
2019-02-16T10:54:04.416Z,18.40
2019-02-16T10:56:35.750Z,18.50
2019-02-16T10:59:10.001Z,18.50
2019-02-16T11:01:41.425Z,18.50
2019-02-16T11:04:22.084Z,18.50
2019-02-16T11:06:53.408Z,18.50
2019-02-16T11:09:24.712Z,18.60
2019-02-16T11:12:14.091Z,18.70
2019-02-16T11:15:01.913Z,18.80
2019-02-16T11:17:35.981Z,18.90
2019-02-16T11:20:15.405Z,18.90
2019-02-16T11:22:49.508Z,19.00
2019-02-16T11:25:29.894Z,19.00
2019-02-16T11:28:05.295Z,19.10
2019-02-16T11:30:36.636Z,19.10
2019-02-16T11:33:11.032Z,19.10
2019-02-16T11:35:42.438Z,19.10
2019-02-16T11:38:16.772Z,19.20
2019-02-16T11:41:03.398Z,19.20
2019-02-16T11:43:43.633Z,19.20
2019-02-16T11:46:23.517Z,19.30
2019-02-16T11:49:10.954Z,19.30
2019-02-16T11:51:54.585Z,19.30
2019-02-16T11:54:25.968Z,19.40
2019-02-16T11:57:03.129Z,19.40
2019-02-16T11:59:43.472Z,19.40
2019-02-16T12:02:21.064Z,19.40
2019-02-16T12:04:52.448Z,19.40
2019-02-16T12:07:36.179Z,19.40
2019-02-16T12:10:11.588Z,19.30
2019-02-16T12:12:42.959Z,19.30
2019-02-16T12:15:20.198Z,19.30
2019-02-16T12:18:00.490Z,19.30
2019-02-16T12:20:37.918Z,19.30
2019-02-16T12:23:09.325Z,19.30
2019-02-16T12:25:52.909Z,19.30
2019-02-16T12:28:36.055Z,19.30
2019-02-16T12:31:22.788Z,19.30
2019-02-16T12:33:54.097Z,19.30
2019-02-16T12:36:28.233Z,19.30
2019-02-16T12:39:04.897Z,19.30
2019-02-16T12:41:38.656Z,19.20
2019-02-16T12:44:13.140Z,19.20
2019-02-16T12:46:44.537Z,19.20
2019-02-16T12:49:18.566Z,19.20
2019-02-16T12:51:52.677Z,19.30
2019-02-16T12:54:29.872Z,19.20
2019-02-16T12:57:01.208Z,19.20
2019-02-16T12:59:32.585Z,19.30
2019-02-16T13:02:13.147Z,19.20
2019-02-16T13:04:46.921Z,19.30
2019-02-16T13:07:24.165Z,19.30
2019-02-16T13:10:04.826Z,19.30
2019-02-16T13:12:58.317Z,19.30
2019-02-16T13:15:29.689Z,19.30
2019-02-16T13:18:01.025Z,19.30
2019-02-16T13:20:32.351Z,19.20
2019-02-16T13:23:03.744Z,19.20
2019-02-16T13:25:35.054Z,19.10
2019-02-16T13:28:24.182Z,19.00
2019-02-16T13:30:55.557Z,18.80
2019-02-16T13:33:38.984Z,18.70
2019-02-16T13:36:26.848Z,18.80
2019-02-16T13:39:14.557Z,18.80
2019-02-16T13:41:51.734Z,18.80
2019-02-16T13:44:26.084Z,18.90
2019-02-16T13:46:57.413Z,18.80
2019-02-16T13:49:31.555Z,18.90
2019-02-16T13:52:02.884Z,19.00
2019-02-16T13:54:43.265Z,19.00
2019-02-16T13:57:30.963Z,19.10
2019-02-16T14:00:02.362Z,19.10
2019-02-16T14:02:33.679Z,19.20
2019-02-16T14:05:11.333Z,19.20
2019-02-16T14:07:48.477Z,19.20
2019-02-16T14:10:28.840Z,19.30
2019-02-16T14:13:09.129Z,19.30
2019-02-16T14:15:55.396Z,19.20
2019-02-16T14:21:15.501Z,19.30
2019-02-16T14:23:45.182Z,19.30
2019-02-16T14:26:14.875Z,19.30
2019-02-16T14:28:44.765Z,19.30
2019-02-16T14:31:16.096Z,19.30
2019-02-16T14:33:45.771Z,19.40
2019-02-16T14:36:15.601Z,19.40
2019-02-16T14:38:46.937Z,19.40
2019-02-16T14:41:16.682Z,19.50
2019-02-16T14:43:46.476Z,19.50
2019-02-16T14:46:16.834Z,19.60
2019-02-16T14:48:46.746Z,19.70
2019-02-16T14:51:16.583Z,19.70
2019-02-16T14:53:46.293Z,19.70
2019-02-16T14:56:16.060Z,19.50
2019-02-16T14:58:45.811Z,19.40
2019-02-16T15:01:16.644Z,19.40
2019-02-16T15:03:46.393Z,19.50
2019-02-16T15:06:16.055Z,19.50
2019-02-16T15:08:45.736Z,19.60
2019-02-16T15:11:16.472Z,19.50
2019-02-16T15:13:46.172Z,19.60
2019-02-16T15:16:15.984Z,19.50
2019-02-16T15:18:45.739Z,19.50
2019-02-16T15:21:15.485Z,19.50
2019-02-16T15:23:45.182Z,19.50
2019-02-16T15:26:14.935Z,19.50
2019-02-16T15:28:44.732Z,19.50
2019-02-16T15:31:14.406Z,19.50
2019-02-16T15:33:44.147Z,19.50
2019-02-16T15:36:13.816Z,19.50
2019-02-16T15:38:43.489Z,19.40
2019-02-16T15:41:13.177Z,19.40
2019-02-16T15:43:42.840Z,19.40
2019-02-16T15:46:12.513Z,19.40
2019-02-16T15:48:42.286Z,19.40
2019-02-16T15:51:12.057Z,19.40
2019-02-16T15:53:41.720Z,19.30
2019-02-16T15:56:11.416Z,19.30
2019-02-16T15:58:41.111Z,19.30
2019-02-16T16:01:11.937Z,19.30
2019-02-16T16:03:41.671Z,19.30
2019-02-16T16:06:12.440Z,19.30
2019-02-16T16:08:49.713Z,19.30
2019-02-16T16:11:27.081Z,19.30
2019-02-16T16:13:58.464Z,19.30
2019-02-16T16:16:47.824Z,19.20
2019-02-16T16:19:19.132Z,19.20
2019-02-16T16:21:56.703Z,19.20
2019-02-16T16:24:34.017Z,19.20
2019-02-16T16:27:05.349Z,19.20
2019-02-16T16:29:42.652Z,19.20
2019-02-16T16:32:19.768Z,19.20
2019-02-16T16:34:54.036Z,19.20
2019-02-16T16:37:25.377Z,19.20
2019-02-16T16:40:05.276Z,19.20
2019-02-16T16:42:45.816Z,19.20
2019-02-16T16:45:23.029Z,19.20
2019-02-16T16:47:57.213Z,19.20
2019-02-16T16:50:46.699Z,19.20
2019-02-16T16:53:23.760Z,19.20
2019-02-16T16:56:09.005Z,19.10
2019-02-16T16:58:52.200Z,19.20
2019-02-16T17:01:29.611Z,19.10
2019-02-16T17:04:19.018Z,19.10
2019-02-16T17:07:06.542Z,19.10
2019-02-16T17:09:37.947Z,19.10
2019-02-16T17:12:18.648Z,19.10
2019-02-16T17:14:56.018Z,19.10
2019-02-16T17:17:30.392Z,19.10
2019-02-16T17:20:10.846Z,19.10
2019-02-16T17:22:45.087Z,19.10
2019-02-16T17:25:32.664Z,19.10
2019-02-16T17:28:12.876Z,19.10
2019-02-16T17:30:50.244Z,19.10
2019-02-16T17:33:33.572Z,19.10
2019-02-16T17:36:04.894Z,19.10
2019-02-16T17:38:51.330Z,19.10
2019-02-16T17:41:22.649Z,19.10
2019-02-16T17:44:10.472Z,19.10
2019-02-16T17:46:47.604Z,19.10
2019-02-16T17:49:34.923Z,19.10
2019-02-16T17:52:06.229Z,19.10
2019-02-16T17:54:46.209Z,19.10
2019-02-16T17:57:26.400Z,19.10
2019-02-16T18:00:15.894Z,19.10
2019-02-16T18:02:47.300Z,19.10
2019-02-16T18:05:24.465Z,19.10
2019-02-16T18:08:12.159Z,19.10
2019-02-16T18:10:58.366Z,19.10
2019-02-16T18:13:32.481Z,19.10
2019-02-16T18:16:06.851Z,19.10
2019-02-16T18:18:38.251Z,19.10
2019-02-16T18:21:09.645Z,19.00
2019-02-16T18:23:41.039Z,19.00
2019-02-16T18:26:15.139Z,19.10
2019-02-16T18:28:58.573Z,19.10
2019-02-16T18:31:35.468Z,19.00
2019-02-16T18:34:25.160Z,19.10
2019-02-16T18:36:56.571Z,19.00
2019-02-16T18:39:30.901Z,19.00
2019-02-16T18:42:20.304Z,19.00
2019-02-16T18:45:10.221Z,19.00
2019-02-16T18:47:46.388Z,19.00
2019-02-16T18:50:18.856Z,19.00
2019-02-16T18:53:06.459Z,19.00
2019-02-16T18:55:37.851Z,19.00
2019-02-16T18:58:13.120Z,19.00
2019-02-16T19:00:47.451Z,18.90
2019-02-16T19:03:25.961Z,18.90
2019-02-16T19:06:00.933Z,18.90
2019-02-16T19:08:41.855Z,18.90
2019-02-16T19:11:13.248Z,18.90
2019-02-16T19:13:48.600Z,18.90
2019-02-16T19:16:25.897Z,18.90
2019-02-16T19:19:13.764Z,19.00
2019-02-16T19:22:00.265Z,18.90
2019-02-16T19:24:37.612Z,18.90
2019-02-16T19:27:21.227Z,18.90
2019-02-16T19:30:01.956Z,18.90
2019-02-16T19:32:33.353Z,18.90
2019-02-16T19:35:15.753Z,18.90
2019-02-16T19:37:57.530Z,18.90
2019-02-16T19:40:28.940Z,18.90
2019-02-16T19:43:09.474Z,18.90
2019-02-16T19:46:00.482Z,18.90
2019-02-16T19:48:34.404Z,19.00
2019-02-16T19:51:09.721Z,19.00
2019-02-16T19:53:46.864Z,18.90
2019-02-16T19:56:31.112Z,19.00
2019-02-16T19:59:11.620Z,18.90
2019-02-16T20:01:48.830Z,18.90
2019-02-16T20:04:29.285Z,19.00
2019-02-16T20:07:01.870Z,18.90
2019-02-16T20:09:49.785Z,18.90
2019-02-16T20:12:21.211Z,18.90
2019-02-16T20:14:52.601Z,18.90
2019-02-16T20:17:25.623Z,18.90
2019-02-16T20:20:12.348Z,18.90
2019-02-16T20:22:52.464Z,18.90
2019-02-16T20:25:25.121Z,18.90
2019-02-16T20:27:59.475Z,18.90
2019-02-16T20:30:47.628Z,18.90
2019-02-16T20:33:32.186Z,18.90
2019-02-16T20:36:16.856Z,18.90
2019-02-16T20:38:58.327Z,18.90
2019-02-16T20:41:29.732Z,18.90
2019-02-16T20:44:04.122Z,18.90
2019-02-16T20:46:38.484Z,18.90
2019-02-16T20:49:15.830Z,18.90
2019-02-16T20:52:02.231Z,18.90
2019-02-16T20:54:33.720Z,18.90
2019-02-16T20:57:14.329Z,18.90
2019-02-16T21:00:02.152Z,18.90
2019-02-16T21:02:40.645Z,18.90
2019-02-16T21:05:30.837Z,18.90
2019-02-16T21:08:02.255Z,18.90
2019-02-16T21:10:33.682Z,18.90
2019-02-16T21:13:24.275Z,18.90
2019-02-16T21:16:01.747Z,18.90
2019-02-16T21:18:39.207Z,18.90
2019-02-16T21:21:10.674Z,18.90
2019-02-16T21:23:58.581Z,18.90
2019-02-16T21:26:50.869Z,18.90
2019-02-16T21:29:36.512Z,18.90
2019-02-16T21:32:23.107Z,18.90
2019-02-16T21:35:00.440Z,18.90
2019-02-16T21:37:37.669Z,18.90
2019-02-16T21:40:18.042Z,18.90
2019-02-16T21:42:49.473Z,18.90
2019-02-16T21:45:35.906Z,18.90
2019-02-16T21:48:14.721Z,18.90
2019-02-16T21:51:04.149Z,18.90
2019-02-16T21:53:38.275Z,18.90
2019-02-16T21:56:25.705Z,18.90
2019-02-16T21:59:18.890Z,18.90
2019-02-16T22:02:03.868Z,18.90
2019-02-16T22:04:35.297Z,18.90
2019-02-16T22:07:15.804Z,18.90
2019-02-16T22:09:53.280Z,18.90
2019-02-16T22:12:24.674Z,18.90
2019-02-16T22:14:54.450Z,18.90
2019-02-16T22:17:24.362Z,18.90
2019-02-16T22:19:54.095Z,18.90
2019-02-16T22:22:23.839Z,18.90
2019-02-16T22:24:53.625Z,18.90
2019-02-16T22:27:23.357Z,18.90
2019-02-16T22:29:53.115Z,18.90
2019-02-16T22:32:22.855Z,18.90
2019-02-16T22:34:52.626Z,18.90
2019-02-16T22:37:22.423Z,18.90
2019-02-16T22:39:52.125Z,18.90
2019-02-16T22:42:21.808Z,18.90
2019-02-16T22:44:51.616Z,18.90
2019-02-16T22:47:21.380Z,18.90
2019-02-16T22:49:51.115Z,18.90
2019-02-16T22:52:20.795Z,18.90
2019-02-16T22:54:50.459Z,18.90
2019-02-16T22:57:20.221Z,18.90
2019-02-16T22:59:49.952Z,18.90
2019-02-16T23:02:19.635Z,18.90
2019-02-16T23:04:50.364Z,18.90
2019-02-16T23:07:20.049Z,18.90
2019-02-16T23:09:49.806Z,18.90
2019-02-16T23:12:19.537Z,19.00
2019-02-16T23:14:49.228Z,19.00
2019-02-16T23:17:18.964Z,18.90
2019-02-16T23:19:48.714Z,19.00
2019-02-16T23:22:18.406Z,19.00
2019-02-16T23:24:48.167Z,19.00
2019-02-16T23:27:17.841Z,18.90
2019-02-16T23:29:47.568Z,19.00
2019-02-16T23:32:17.256Z,19.00
2019-02-16T23:34:46.921Z,19.00
2019-02-16T23:37:16.603Z,19.00
2019-02-16T23:39:46.588Z,19.00
2019-02-16T23:42:16.326Z,19.00
2019-02-16T23:44:45.988Z,19.10
2019-02-16T23:47:15.667Z,19.10
2019-02-16T23:49:45.328Z,19.10
2019-02-16T23:52:15.013Z,19.10
2019-02-16T23:54:44.697Z,19.10
2019-02-16T23:57:14.350Z,19.10
2019-02-16T23:59:44.082Z,19.10
